Impacts METAR Board INFO
IDs:

KLAX - Los Angeles Intl, CA, US

Updated at: 2257 UTC 21 Nov 2017
Potential Impact None Slight Moderate High
Time21/10Z 21/11Z 21/12Z 21/13Z 21/14Z 21/15Z 21/16Z 21/17Z 21/18Z 21/19Z 21/20Z 21/21Z 21/22Z
VIS10 10 10 10 10 10 10 10 10 10 10 10 10
CIG250 -- 250 250 180 150 220 250 250 250 250 250 280
CoverBKNSCTBKNBKNBKNBKNBKNBKNBKNBKNBKNBKNBKN
FltCatVFRVFRVFRVFRVFRVFRVFRVFRVFRVFRVFRVFRVFR
WX--------------------------
WDir4012090110100802600240250260270260
WSpd5 3 4 3 3 3 8 3 5 6 8 13 8
WGst-- -- -- -- -- -- -- -- -- -- -- -- --
Raw hourly METARs
KLAX 210953Z 04005KT 10SM FEW180 BKN250 17/09 A3003 RMK AO2 SLP165 T01670089
KLAX 211053Z 12003KT 10SM FEW180 SCT250 16/10 A3002 RMK AO2 SLP165 T01610100
KLAX 211153Z 09004KT 10SM SCT180 BKN250 16/10 A3002 RMK AO2 SLP162 T01560100 10183 20150 58002
KLAX 211253Z 11003KT 10SM SCT180 BKN250 15/09 A3002 RMK AO2 SLP163 T01500094
KLAX 211353Z 10003KT 10SM BKN180 BKN250 16/07 A3003 RMK AO2 SLP167 T01560072
KLAX 211453Z 08003KT 10SM FEW065 SCT080 BKN150 BKN200 18/03 A3005 RMK AO2 SLP172 ACSL NE-SE T01780033 53010
KLAX 211553Z 26008KT 10SM FEW070 FEW090 SCT150 BKN220 21/03 A3007 RMK AO2 SLP182 T02060033
KLAX 211653Z VRB03KT 10SM FEW075 FEW090 SCT160 BKN250 22/07 A3008 RMK AO2 SLP184 T02220072
KLAX 211753Z 24005KT 10SM FEW065 FEW090 SCT160 BKN250 24/07 A3009 RMK AO2 SLP186 T02440072 10250 20144 51015
KLAX 211853Z 25006KT 10SM FEW070 FEW090 SCT160 BKN250 25/06 A3007 RMK AO2 SLP182 T02500061
KLAX 211953Z 26008KT 10SM FEW070 FEW095 SCT160 BKN250 26/04 A3005 RMK AO2 SLP174 T02560039
KLAX 212053Z 27013KT 10SM FEW070 FEW100 SCT170 BKN250 24/07 A3003 RMK AO2 SLP169 T02390072 58017
KLAX 212153Z 26008KT 10SM FEW100 SCT180 BKN280 24/10 A3002 RMK AO2 SLP165 T02390100